createdAt,value
2023-02-19T00:01:53.553Z,98524.94
2023-02-19T00:04:23.973Z,98533.51
2023-02-19T00:06:52.593Z,98527.09
2023-02-19T00:09:22.177Z,98535.51
2023-02-19T00:11:50.787Z,98526.79
2023-02-19T00:14:20.640Z,98526.62
2023-02-19T00:16:49.240Z,98526.00
2023-02-19T00:19:20.152Z,98527.08
2023-02-19T00:21:50.533Z,98530.02
2023-02-19T00:24:19.088Z,98521.55
2023-02-19T00:26:49.751Z,98520.97
2023-02-19T00:29:21.409Z,98526.06
2023-02-19T00:31:49.647Z,98522.73
2023-02-19T00:34:17.958Z,98520.16
2023-02-19T00:36:46.355Z,98515.42
2023-02-19T00:39:16.149Z,98528.46
2023-02-19T00:41:44.546Z,98525.37
2023-02-19T00:44:13.188Z,98528.13
2023-02-19T00:46:43.423Z,98536.14
2023-02-19T00:49:22.698Z,98536.18
2023-02-19T00:51:54.840Z,98535.45
2023-02-19T00:54:26.299Z,98528.11
2023-02-19T00:56:57.845Z,98529.56
2023-02-19T00:59:33.350Z,98529.52
2023-02-19T01:02:04.860Z,98535.22
2023-02-19T01:04:35.872Z,98538.15
2023-02-19T01:07:07.923Z,98537.93
2023-02-19T01:09:40.730Z,98539.19
2023-02-19T01:12:13.312Z,98542.51
2023-02-19T01:14:44.185Z,98543.00
2023-02-19T01:17:17.466Z,98542.56
2023-02-19T01:19:48.845Z,98548.21
2023-02-19T01:22:20.966Z,98548.38
2023-02-19T01:24:51.672Z,98553.51
2023-02-19T01:27:22.464Z,98547.23
2023-02-19T01:29:54.383Z,98545.37
2023-02-19T01:32:26.885Z,98547.13
2023-02-19T01:34:57.560Z,98553.78
2023-02-19T01:37:28.901Z,98555.40
2023-02-19T01:40:06.329Z,98556.17
2023-02-19T01:42:37.938Z,98561.11
2023-02-19T01:45:47.864Z,98556.08
2023-02-19T01:54:44.873Z,98554.20
2023-02-19T01:57:16.606Z,98555.02
2023-02-19T01:59:44.765Z,98560.03
2023-02-19T02:02:13.209Z,98559.09
2023-02-19T02:04:41.419Z,98564.67
2023-02-19T02:07:30.299Z,98567.01
2023-02-19T02:10:18.192Z,98572.65
2023-02-19T02:12:51.754Z,98578.92
2023-02-19T02:15:24.241Z,98587.25
2023-02-19T02:18:30.552Z,98591.61
2023-02-19T02:21:03.886Z,98600.00
2023-02-19T02:24:05.087Z,98589.38
2023-02-19T02:26:45.728Z,98601.89
2023-02-19T02:30:01.255Z,98597.13
2023-02-19T02:32:36.886Z,98594.23
2023-02-19T02:35:10.388Z,98608.80
2023-02-19T02:37:40.957Z,98603.91
2023-02-19T02:40:09.940Z,98604.86
2023-02-19T02:42:39.608Z,98603.72
2023-02-19T02:45:38.214Z,98616.52
2023-02-19T02:48:41.263Z,98612.83
2023-02-19T02:51:26.409Z,98617.81
2023-02-19T02:54:27.823Z,98613.84
2023-02-19T02:56:56.479Z,98614.95
2023-02-19T02:59:26.320Z,98611.58
2023-02-19T03:02:12.058Z,98619.08
2023-02-19T03:05:06.655Z,98628.79
2023-02-19T03:07:42.104Z,98631.81
2023-02-19T03:10:12.459Z,98634.45
2023-02-19T03:13:00.181Z,98637.44
2023-02-19T03:15:51.212Z,98649.14
2023-02-19T03:18:38.859Z,98645.95
2023-02-19T03:21:07.341Z,98643.73
2023-02-19T03:23:54.327Z,98646.21
2023-02-19T03:26:22.764Z,98645.85
2023-02-19T03:29:11.814Z,98651.33
2023-02-19T03:31:42.650Z,98655.11
2023-02-19T03:34:14.559Z,98649.64
2023-02-19T03:36:55.784Z,98658.13
2023-02-19T03:39:24.183Z,98660.60
2023-02-19T03:41:55.648Z,98652.70
2023-02-19T03:44:46.064Z,98666.02
2023-02-19T03:47:27.781Z,98678.02
2023-02-19T03:49:59.206Z,98673.76
2023-02-19T03:52:37.430Z,98683.98
2023-02-19T03:55:32.332Z,98674.87
2023-02-19T03:58:19.897Z,98687.90
2023-02-19T04:00:51.431Z,98683.05
2023-02-19T04:03:42.167Z,98690.65
2023-02-19T04:06:14.968Z,98686.50
2023-02-19T04:08:47.293Z,98695.46
2023-02-19T04:11:16.385Z,98684.77
2023-02-19T04:13:46.798Z,98681.20
2023-02-19T04:16:20.775Z,98684.75
2023-02-19T04:18:54.636Z,98682.10
2023-02-19T04:21:23.345Z,98685.38
2023-02-19T04:23:52.377Z,98679.39
2023-02-19T04:26:20.708Z,98673.20
2023-02-19T04:28:48.929Z,98671.20
2023-02-19T04:31:18.658Z,98682.30
2023-02-19T04:33:46.941Z,98690.23
2023-02-19T04:36:14.833Z,98700.08
2023-02-19T04:38:42.916Z,98701.80
2023-02-19T04:41:13.518Z,98698.49
2023-02-19T04:43:42.996Z,98699.02
2023-02-19T04:46:12.646Z,98711.50
2023-02-19T04:48:43.158Z,98709.23
2023-02-19T04:51:11.861Z,98712.96
2023-02-19T04:53:40.436Z,98723.67
2023-02-19T04:56:09.570Z,98726.67
2023-02-19T04:58:39.631Z,98730.45
2023-02-19T05:01:07.883Z,98734.79
2023-02-19T05:03:35.929Z,98730.48
2023-02-19T05:06:09.716Z,98736.39
2023-02-19T05:08:38.054Z,98734.31
2023-02-19T05:11:07.271Z,98738.55
2023-02-19T05:13:38.458Z,98746.98
2023-02-19T05:16:13.878Z,98746.85
2023-02-19T05:18:43.147Z,98748.13
2023-02-19T05:21:11.754Z,98754.42
2023-02-19T05:23:40.427Z,98756.86
2023-02-19T05:26:09.784Z,98760.66
2023-02-19T05:28:39.505Z,98757.69
2023-02-19T05:31:08.660Z,98757.05
2023-02-19T05:33:38.226Z,98753.88
2023-02-19T05:36:13.361Z,98759.77
2023-02-19T05:38:42.627Z,98763.36
2023-02-19T05:41:18.603Z,98759.38
2023-02-19T05:43:47.617Z,98769.00
2023-02-19T05:46:17.157Z,98768.88
2023-02-19T05:48:45.489Z,98761.40
2023-02-19T05:51:15.915Z,98763.77
2023-02-19T05:53:44.437Z,98773.90
2023-02-19T05:56:27.548Z,98771.83
2023-02-19T05:58:55.821Z,98770.12
2023-02-19T06:01:26.824Z,98776.30
2023-02-19T06:03:57.358Z,98779.98
2023-02-19T06:06:26.103Z,98789.56
2023-02-19T06:08:54.734Z,98787.01
2023-02-19T06:11:22.876Z,98793.63
2023-02-19T06:13:51.774Z,98795.17
2023-02-19T06:16:22.067Z,98791.20
2023-02-19T06:18:55.721Z,98795.42
2023-02-19T06:21:23.809Z,98791.43
2023-02-19T06:23:52.052Z,98787.71
2023-02-19T06:26:22.439Z,98791.54
2023-02-19T06:28:51.726Z,98791.52
2023-02-19T06:31:20.837Z,98790.81
2023-02-19T06:33:50.792Z,98785.68
2023-02-19T06:36:19.921Z,98784.66
2023-02-19T06:38:48.052Z,98782.87
2023-02-19T06:41:21.068Z,98784.86
2023-02-19T06:43:49.833Z,98778.58
2023-02-19T06:46:18.592Z,98793.23
2023-02-19T06:48:47.066Z,98780.67
2023-02-19T06:51:18.609Z,98784.58
2023-02-19T06:53:46.784Z,98792.67
2023-02-19T06:56:22.749Z,98781.48
2023-02-19T06:58:52.273Z,98788.95
2023-02-19T07:01:21.322Z,98790.90
2023-02-19T07:03:52.805Z,98790.36
2023-02-19T07:06:21.986Z,98785.91
2023-02-19T07:08:54.063Z,98791.63
2023-02-19T07:11:22.182Z,98790.88
2023-02-19T07:14:00.689Z,98794.55
2023-02-19T07:16:29.502Z,98788.33
2023-02-19T07:18:58.155Z,98776.13
2023-02-19T07:21:31.389Z,98786.21
2023-02-19T07:24:00.399Z,98794.11
2023-02-19T07:26:34.437Z,98798.35
2023-02-19T07:29:02.603Z,98804.90
2023-02-19T07:31:30.810Z,98794.74
2023-02-19T07:33:58.963Z,98789.23
2023-02-19T07:36:26.977Z,98787.68
2023-02-19T07:38:56.393Z,98789.74
2023-02-19T07:41:24.844Z,98788.73
2023-02-19T07:43:54.233Z,98788.92
2023-02-19T07:46:22.716Z,98796.00
2023-02-19T07:48:51.005Z,98786.96
2023-02-19T07:51:20.107Z,98818.93
2023-02-19T07:53:50.276Z,98793.27
2023-02-19T07:56:18.967Z,98790.84
2023-02-19T07:58:46.990Z,98814.58
2023-02-19T08:02:01.486Z,98812.17
2023-02-19T08:04:29.962Z,98808.66
2023-02-19T08:06:58.427Z,98804.88
2023-02-19T08:09:26.790Z,98814.14
2023-02-19T08:12:20.658Z,98808.33
2023-02-19T08:14:49.247Z,98818.09
2023-02-19T08:17:17.608Z,98796.80
2023-02-19T08:19:45.814Z,98838.73
2023-02-19T08:22:16.355Z,98815.73
2023-02-19T08:24:45.118Z,98814.61
2023-02-19T08:27:13.124Z,98809.63
2023-02-19T08:29:41.230Z,98806.96
2023-02-19T08:32:09.936Z,98805.73
2023-02-19T08:34:38.425Z,98806.86
2023-02-19T08:37:06.434Z,98816.89
2023-02-19T08:39:34.879Z,98816.52
2023-02-19T08:42:03.846Z,98817.10
2023-02-19T08:44:33.006Z,98810.83
2023-02-19T08:47:02.576Z,98836.39
2023-02-19T08:49:32.568Z,98816.80
2023-02-19T08:52:00.782Z,98829.00
2023-02-19T08:54:30.222Z,98819.02
2023-02-19T08:56:58.502Z,98830.51
2023-02-19T08:59:29.085Z,98825.19
2023-02-19T09:02:00.455Z,98821.60
2023-02-19T09:04:28.906Z,98817.64
2023-02-19T09:06:57.206Z,98827.15
2023-02-19T09:09:25.410Z,98814.31
2023-02-19T09:11:53.422Z,98813.23
2023-02-19T09:14:24.100Z,98811.23
2023-02-19T09:16:52.300Z,98819.73
2023-02-19T09:19:20.473Z,98808.39
2023-02-19T09:21:48.994Z,98799.83
2023-02-19T09:24:17.240Z,98812.09
2023-02-19T09:26:45.244Z,98805.77
2023-02-19T09:29:15.918Z,98810.58
2023-02-19T09:31:44.622Z,98816.14
2023-02-19T09:34:12.943Z,98808.96
2023-02-19T09:36:40.992Z,98811.79
2023-02-19T09:39:10.541Z,98809.77
2023-02-19T09:41:45.479Z,98810.31
2023-02-19T09:44:18.315Z,98805.63
2023-02-19T09:46:48.135Z,98805.88
2023-02-19T09:49:33.861Z,98817.63
2023-02-19T09:52:07.319Z,98821.61
2023-02-19T09:54:35.379Z,98812.98
2023-02-19T09:57:04.367Z,98813.04
2023-02-19T09:59:41.297Z,98809.41
2023-02-19T10:02:19.993Z,98800.52
2023-02-19T10:04:48.630Z,98798.16
2023-02-19T10:07:25.090Z,98786.73
2023-02-19T10:10:20.507Z,98786.98
2023-02-19T10:12:54.185Z,98775.00
2023-02-19T10:16:00.958Z,98782.14
2023-02-19T10:18:32.285Z,98779.83
2023-02-19T10:21:00.618Z,98778.80
2023-02-19T10:23:30.148Z,98782.16
2023-02-19T10:25:59.109Z,98785.49
2023-02-19T10:28:29.258Z,98773.48
2023-02-19T10:30:58.984Z,98766.23
2023-02-19T10:33:30.874Z,98776.73
2023-02-19T10:36:04.025Z,98774.27
2023-02-19T10:38:45.892Z,98775.27
2023-02-19T10:41:20.843Z,98766.54
2023-02-19T10:44:08.119Z,98761.23
2023-02-19T10:46:42.115Z,98762.45
2023-02-19T10:49:32.832Z,98746.68
2023-02-19T10:52:22.368Z,98742.07
2023-02-19T10:55:10.177Z,98728.84
2023-02-19T10:57:38.493Z,98729.69
2023-02-19T11:00:15.771Z,98747.10
2023-02-19T11:02:44.340Z,98713.02
2023-02-19T11:05:14.892Z,98700.19
2023-02-19T11:07:56.338Z,98704.01
2023-02-19T11:10:39.856Z,98703.64
2023-02-19T11:13:17.901Z,98700.55
2023-02-19T11:15:51.717Z,98696.07
2023-02-19T11:18:25.306Z,98687.84
2023-02-19T11:20:54.530Z,98684.66
2023-02-19T11:23:31.658Z,98679.29
2023-02-19T11:26:06.452Z,98684.27
2023-02-19T11:28:39.314Z,98677.96
2023-02-19T11:31:19.947Z,98671.52
2023-02-19T11:34:01.551Z,98672.60
2023-02-19T11:36:33.722Z,98681.90
2023-02-19T11:39:17.494Z,98669.61
2023-02-19T11:42:14.180Z,98667.97
2023-02-19T11:44:51.984Z,98660.39
2023-02-19T11:48:00.349Z,98668.98
2023-02-19T11:51:06.872Z,98676.93
2023-02-19T11:53:39.326Z,98669.67
2023-02-19T11:56:12.328Z,98683.70
2023-02-19T11:59:06.100Z,98679.92
2023-02-19T12:01:53.069Z,98679.69
2023-02-19T12:05:02.018Z,98674.65
2023-02-19T12:07:44.133Z,98682.27
2023-02-19T12:10:23.599Z,98679.45
2023-02-19T12:13:02.779Z,98680.60
2023-02-19T12:16:04.218Z,98682.53
2023-02-19T12:18:47.866Z,98684.45
2023-02-19T12:21:51.683Z,98678.06
2023-02-19T12:24:49.246Z,98673.89
2023-02-19T12:27:46.583Z,98679.98
2023-02-19T12:30:49.221Z,98686.13
2023-02-19T12:33:55.938Z,98691.19
2023-02-19T12:36:31.495Z,98681.58
2023-02-19T12:39:14.840Z,98683.30
2023-02-19T12:41:49.804Z,98676.81
2023-02-19T12:44:45.190Z,98680.63
2023-02-19T12:47:23.117Z,98678.02
2023-02-19T12:50:04.117Z,98680.81
2023-02-19T12:52:37.917Z,98677.25
2023-02-19T12:55:24.220Z,98680.16
2023-02-19T12:57:59.392Z,98685.61
2023-02-19T13:00:39.877Z,98681.20
2023-02-19T13:03:32.738Z,98677.38
2023-02-19T13:06:15.972Z,98681.58
2023-02-19T13:09:06.722Z,98678.88
2023-02-19T13:11:48.235Z,98682.30
2023-02-19T13:14:39.467Z,98681.95
2023-02-19T13:17:28.005Z,98691.43
2023-02-19T13:20:25.106Z,98684.41
2023-02-19T13:23:19.334Z,98686.86
2023-02-19T13:26:06.006Z,98696.19
2023-02-19T13:29:13.619Z,98686.60
2023-02-19T13:31:54.092Z,98682.89
2023-02-19T13:34:40.464Z,98682.06
2023-02-19T13:37:08.837Z,98679.39
2023-02-19T13:39:37.161Z,98669.36
2023-02-19T13:42:06.345Z,98666.47
2023-02-19T13:44:34.714Z,98670.10
2023-02-19T13:47:06.282Z,98667.85
2023-02-19T13:49:41.174Z,98669.80
2023-02-19T13:52:28.303Z,98668.87
2023-02-19T13:55:57.080Z,98666.84
2023-02-19T13:58:34.142Z,98670.89
2023-02-19T14:01:05.107Z,98668.33
2023-02-19T14:03:55.497Z,98670.30
2023-02-19T14:06:24.405Z,98670.77
2023-02-19T14:09:00.655Z,98680.41
2023-02-19T14:11:41.891Z,98671.17
2023-02-19T14:14:28.487Z,98676.61
2023-02-19T14:17:29.402Z,98680.20
2023-02-19T14:20:11.756Z,98676.89
2023-02-19T14:22:52.121Z,98679.13
2023-02-19T14:25:42.206Z,98684.57
2023-02-19T14:28:12.740Z,98680.08
2023-02-19T14:30:53.928Z,98680.36
2023-02-19T14:33:28.793Z,98679.18
2023-02-19T14:36:28.769Z,98677.38
2023-02-19T14:39:04.919Z,98678.06
2023-02-19T14:41:36.462Z,98679.98
2023-02-19T14:44:05.010Z,98682.56
2023-02-19T14:46:43.917Z,98682.61
2023-02-19T14:49:36.487Z,98681.57
2023-02-19T14:52:06.610Z,98682.56
2023-02-19T14:54:42.075Z,98682.48
2023-02-19T14:57:30.728Z,98682.79
2023-02-19T15:00:01.692Z,98683.48
2023-02-19T15:02:31.337Z,98686.55
2023-02-19T15:04:59.657Z,98687.80
2023-02-19T15:07:32.917Z,98690.39
2023-02-19T15:10:05.135Z,98688.78
2023-02-19T15:12:41.232Z,98687.42
2023-02-19T15:15:23.456Z,98688.51
2023-02-19T15:17:52.523Z,98693.88
2023-02-19T15:20:23.227Z,98697.70
2023-02-19T15:22:54.116Z,98701.39
2023-02-19T15:25:23.603Z,98701.88
2023-02-19T15:27:52.283Z,98707.61
2023-02-19T15:30:24.402Z,98711.48
2023-02-19T15:33:02.285Z,98716.08
2023-02-19T15:35:31.949Z,98710.45
2023-02-19T15:38:00.446Z,98714.77
2023-02-19T15:40:30.724Z,98715.95
2023-02-19T15:42:59.500Z,98712.56
2023-02-19T15:45:41.456Z,98715.92
2023-02-19T15:48:16.514Z,98718.87
2023-02-19T15:50:53.474Z,98732.50
2023-02-19T15:53:24.876Z,98729.23
2023-02-19T15:55:59.108Z,98727.31
2023-02-19T15:58:43.490Z,98732.09
2023-02-19T16:01:28.232Z,98726.62
2023-02-19T16:03:57.352Z,98729.19
2023-02-19T16:06:26.057Z,98726.71
2023-02-19T16:09:02.359Z,98726.85
2023-02-19T16:11:43.521Z,98731.85
2023-02-19T16:14:22.990Z,98734.55
2023-02-19T16:16:54.333Z,98733.57
2023-02-19T16:19:28.589Z,98737.66
2023-02-19T16:21:57.120Z,98734.28
2023-02-19T16:24:27.857Z,98734.73
2023-02-19T16:26:56.919Z,98739.45
2023-02-19T16:29:32.636Z,98733.04
2023-02-19T16:32:15.538Z,98735.98
2023-02-19T16:34:47.058Z,98736.50
2023-02-19T16:37:30.271Z,98738.55
2023-02-19T16:40:11.477Z,98739.98
2023-02-19T16:42:48.809Z,98742.34
2023-02-19T16:45:17.500Z,98742.36
2023-02-19T16:47:48.476Z,98746.46
2023-02-19T16:50:20.127Z,98748.77
2023-02-19T16:52:55.662Z,98738.45
2023-02-19T16:55:23.953Z,98732.98
2023-02-19T16:57:52.360Z,98741.66
2023-02-19T17:00:21.751Z,98733.84
2023-02-19T17:02:52.293Z,98732.89
2023-02-19T17:05:20.737Z,98735.78
2023-02-19T17:07:49.485Z,98739.73
2023-02-19T17:10:27.497Z,98724.68
2023-02-19T17:12:55.821Z,98714.68
2023-02-19T17:15:25.359Z,98721.98
2023-02-19T17:17:53.644Z,98715.20
2023-02-19T17:20:28.765Z,98722.05
2023-02-19T17:22:57.443Z,98724.55
2023-02-19T17:25:25.508Z,98727.02
2023-02-19T17:27:54.050Z,98730.23
2023-02-19T17:30:30.577Z,98731.75
2023-02-19T17:32:59.237Z,98736.83
2023-02-19T17:35:27.881Z,98739.98
2023-02-19T17:37:57.397Z,98741.34
2023-02-19T17:40:33.075Z,98735.63
2023-02-19T17:43:02.448Z,98737.63
2023-02-19T17:45:33.872Z,98742.42
2023-02-19T17:48:02.128Z,98741.33
2023-02-19T17:50:32.724Z,98740.52
2023-02-19T17:53:01.280Z,98741.62
2023-02-19T17:55:29.873Z,98742.84
2023-02-19T17:57:58.020Z,98741.58
2023-02-19T18:00:27.875Z,98745.75
2023-02-19T18:02:57.877Z,98754.96
2023-02-19T18:05:26.465Z,98762.45
2023-02-19T18:07:55.380Z,98765.77
2023-02-19T18:10:24.499Z,98770.20
2023-02-19T18:12:52.714Z,98774.74
2023-02-19T18:15:22.607Z,98780.23
2023-02-19T18:17:50.715Z,98786.64
2023-02-19T18:20:28.972Z,98794.90
2023-02-19T18:22:57.628Z,98786.66
2023-02-19T18:25:25.979Z,98803.42
2023-02-19T18:27:55.266Z,98789.03
2023-02-19T18:30:23.895Z,98791.83
2023-02-19T18:32:52.620Z,98797.54
2023-02-19T18:35:21.121Z,98790.78
2023-02-19T18:37:51.488Z,98790.69
2023-02-19T18:40:26.073Z,98792.02
2023-02-19T18:42:55.879Z,98793.38
2023-02-19T18:45:24.706Z,98789.74
2023-02-19T18:47:53.348Z,98790.98
2023-02-19T18:50:23.745Z,98791.34
2023-02-19T18:52:51.859Z,98790.34
2023-02-19T18:55:21.408Z,98790.40
2023-02-19T18:57:49.855Z,98796.98
2023-02-19T19:00:21.419Z,98797.58
2023-02-19T19:02:50.529Z,98802.50
2023-02-19T19:05:23.293Z,98810.33
2023-02-19T19:07:54.023Z,98811.95
2023-02-19T19:10:24.801Z,98820.48
2023-02-19T19:12:54.544Z,98815.71
2023-02-19T19:15:22.770Z,98830.86
2023-02-19T19:17:51.913Z,98819.39
2023-02-19T19:20:21.105Z,98829.67
2023-02-19T19:22:50.724Z,98825.48
2023-02-19T19:25:20.383Z,98834.31
2023-02-19T19:27:50.737Z,98848.05
2023-02-19T19:30:20.275Z,98849.09
2023-02-19T19:32:50.388Z,98844.27
2023-02-19T19:35:20.398Z,98848.75
2023-02-19T19:37:49.316Z,98854.42
2023-02-19T19:40:18.127Z,98850.74
2023-02-19T19:42:46.562Z,98857.50
2023-02-19T19:45:15.498Z,98856.66
2023-02-19T19:47:43.916Z,98852.05
2023-02-19T19:50:14.640Z,98852.52
2023-02-19T19:52:43.440Z,98855.29
2023-02-19T19:55:11.712Z,98856.24
2023-02-19T19:57:41.122Z,98858.23
2023-02-19T20:00:16.205Z,98864.89
2023-02-19T20:02:47.634Z,98865.63
2023-02-19T20:05:18.166Z,98874.38
2023-02-19T20:07:46.571Z,98871.52
2023-02-19T20:10:22.119Z,98874.63
2023-02-19T20:12:51.117Z,98876.91
2023-02-19T20:15:22.308Z,98881.95
2023-02-19T20:17:51.320Z,98885.16
2023-02-19T20:20:19.798Z,98883.60
2023-02-19T20:22:52.073Z,98892.99
2023-02-19T20:25:23.573Z,98893.25
2023-02-19T20:27:53.473Z,98896.05
2023-02-19T20:30:23.721Z,98894.77
2023-02-19T20:32:51.993Z,98902.81
2023-02-19T20:35:21.518Z,98899.02
2023-02-19T20:37:49.915Z,98904.89
2023-02-19T20:40:18.365Z,98906.58
2023-02-19T20:42:46.986Z,98898.00
2023-02-19T20:45:17.161Z,98906.92
2023-02-19T20:47:46.236Z,98910.30
2023-02-19T20:50:19.593Z,98912.23
2023-02-19T20:52:52.704Z,98916.26
2023-02-19T20:55:20.843Z,98920.98
2023-02-19T20:57:49.665Z,98923.09
2023-02-19T21:00:19.166Z,98926.02
2023-02-19T21:02:48.123Z,98931.02
2023-02-19T21:05:17.698Z,98937.83
2023-02-19T21:07:48.253Z,98941.61
2023-02-19T21:10:16.723Z,98940.63
2023-02-19T21:12:48.169Z,98943.08
2023-02-19T21:15:16.358Z,98946.54
2023-02-19T21:17:46.525Z,98943.69
2023-02-19T21:20:15.568Z,98941.46
2023-02-19T21:22:44.906Z,98943.63
2023-02-19T21:25:13.749Z,98945.92
2023-02-19T21:27:43.833Z,98944.92
2023-02-19T21:30:12.879Z,98946.14
2023-02-19T21:32:41.437Z,98958.36
2023-02-19T21:35:10.167Z,98955.81
2023-02-19T21:37:42.329Z,98957.09
2023-02-19T21:40:12.483Z,98959.02
2023-02-19T21:42:41.269Z,98962.05
2023-02-19T21:45:10.350Z,98968.07
2023-02-19T21:47:38.853Z,98973.25
2023-02-19T21:50:07.753Z,98966.36
2023-02-19T21:52:42.340Z,98972.92
2023-02-19T21:55:12.086Z,98967.63
2023-02-19T21:57:41.797Z,98973.73
2023-02-19T22:00:10.848Z,98974.94
2023-02-19T22:02:38.949Z,98981.75
2023-02-19T22:05:07.255Z,98979.73
2023-02-19T22:07:35.416Z,98985.59
2023-02-19T22:10:05.678Z,98987.71
2023-02-19T22:12:34.599Z,98992.78
2023-02-19T22:15:03.253Z,98991.89
2023-02-19T22:17:31.803Z,98988.27
2023-02-19T22:20:00.466Z,98996.02
2023-02-19T22:22:30.772Z,98989.55
2023-02-19T22:24:59.579Z,98987.52
2023-02-19T22:27:29.391Z,98991.20
2023-02-19T22:29:58.336Z,98991.58
2023-02-19T22:32:26.752Z,98994.48
2023-02-19T22:34:55.126Z,98990.05
2023-02-19T22:37:25.285Z,98994.49
2023-02-19T22:39:53.397Z,98995.80
2023-02-19T22:42:21.765Z,98997.63
2023-02-19T22:44:50.315Z,99000.36
2023-02-19T22:47:19.365Z,99006.20
2023-02-19T22:49:47.670Z,99000.18
2023-02-19T22:52:18.525Z,99004.64
2023-02-19T22:54:46.891Z,99005.35
2023-02-19T22:57:14.902Z,99003.73
2023-02-19T22:59:44.541Z,99005.39
2023-02-19T23:02:12.575Z,99007.70
2023-02-19T23:04:43.235Z,99005.42
2023-02-19T23:07:11.546Z,99006.70
2023-02-19T23:09:39.699Z,99001.96
2023-02-19T23:12:09.526Z,99008.90
2023-02-19T23:14:39.423Z,99014.50
2023-02-19T23:17:08.511Z,99009.20
2023-02-19T23:19:39.205Z,99020.08
2023-02-19T23:22:07.962Z,99009.61
2023-02-19T23:24:36.232Z,99008.20
2023-02-19T23:27:04.727Z,99010.10
2023-02-19T23:29:32.816Z,99015.24
2023-02-19T23:32:01.320Z,99013.70
2023-02-19T23:34:29.915Z,99017.50
2023-02-19T23:37:02.393Z,99022.81
2023-02-19T23:39:30.474Z,99027.57
2023-02-19T23:42:00.085Z,99032.61
2023-02-19T23:44:28.162Z,99029.27
2023-02-19T23:46:56.387Z,99023.47
2023-02-19T23:49:26.035Z,99029.65
2023-02-19T23:51:54.159Z,99028.50
2023-02-19T23:54:22.100Z,99029.75
2023-02-19T23:56:50.201Z,99024.70
2023-02-19T23:59:18.255Z,99029.38
